Huvudsida
METAR-TAF:

METAR-TAF

Flygplatser :

Arvidsjaur flygplats

Arvidsjaur, Sverige

latitud: 65-35-25N, longitud: 019-16-55E, höjd: 379 m

Aktuellt väderrapport

Denna rapport gjordes för 18 minuter sedan, klockan 00:20 UTC
Stilla vind
Temperatur -5°C
Fuktighet 100%
Tryck 1022 hPa
Sikt: 0500 m
lätt snö

METAR: ESNX 190020Z AUTO 00000KT 0500 R30/1800N -SN OVC001/// M05/M05 Q1022 RESG REFZUP

Tid: 01:38 (00:38 UTC)

Väderprognos

Denna rapport gjordes för 7 timmar och 8 minuter sedan, klockan 17:30 UTC
Prognos gäller från 18 kl. 18 UTC till 18 kl. 22 UTC
Vind 2 kt varierande vindriktning
Sikt: 8000 m
Mulet på en höjd av 400 ft
Sannolikhet 40%
från 18 kl. 18 UTC till 18 kl. 22 UTC
Sikt: 3000 m
Brutna moln på en höjd av 800 ft
lätt snö

TAF: ESNX 181730Z 1818/1822 VRB02KT 8000 OVC004 PROB40 1818/1822 3000 -SN BKN008

Aktuella väderrapporter och prognoser från 4000 flygplatser (METAR- och TAF-rapporter).

De tillgängliga stationerna syns som gula och röda prickar på kartan.

För musen över prickarna för att se namnen på stationerna.

Klicka sedan för att få väderrapporter och prognoser.

För att ändra kartan: Klicka på de gröna knapparna med ett svart kors på för att zooma in; den gröna knappen med ett streck på för att zooma ut; eller på de gröna pilarna för angränsande kartor.


METAR-TAF: